sensor_id;sensor_type;location;lat;lon;timestamp;temperature;humidity
29341;DHT22;16337;59.536;13.468;2023-12-20T00:01:07;-1.20;99.90
29341;DHT22;16337;59.536;13.468;2023-12-20T00:03:32;-1.20;99.90
29341;DHT22;16337;59.536;13.468;2023-12-20T00:05:58;-1.30;99.90
29341;DHT22;16337;59.536;13.468;2023-12-20T00:08:24;-1.40;99.90
29341;DHT22;16337;59.536;13.468;2023-12-20T00:10:50;-1.40;99.90
29341;DHT22;16337;59.536;13.468;2023-12-20T00:13:15;-1.50;99.90
29341;DHT22;16337;59.536;13.468;2023-12-20T00:15:41;-1.60;99.90
29341;DHT22;16337;59.536;13.468;2023-12-20T00:18:07;-1.60;99.90
29341;DHT22;16337;59.536;13.468;2023-12-20T00:20:32;-1.70;99.90
29341;DHT22;16337;59.536;13.468;2023-12-20T00:22:58;-1.70;99.90
29341;DHT22;16337;59.536;13.468;2023-12-20T00:25:24;-1.70;99.90
29341;DHT22;16337;59.536;13.468;2023-12-20T00:27:50;-1.80;99.90
29341;DHT22;16337;59.536;13.468;2023-12-20T00:30:16;-1.80;99.90
29341;DHT22;16337;59.536;13.468;2023-12-20T00:32:42;-1.70;99.90
29341;DHT22;16337;59.536;13.468;2023-12-20T00:35:15;-1.70;99.90
29341;DHT22;16337;59.536;13.468;2023-12-20T00:37:44;-1.60;99.90
29341;DHT22;16337;59.536;13.468;2023-12-20T00:40:10;-1.60;99.90
29341;DHT22;16337;59.536;13.468;2023-12-20T00:42:36;-1.60;99.90
29341;DHT22;16337;59.536;13.468;2023-12-20T00:45:02;-1.60;99.90
29341;DHT22;16337;59.536;13.468;2023-12-20T00:47:30;-1.60;99.90
29341;DHT22;16337;59.536;13.468;2023-12-20T00:49:56;-1.60;99.90
29341;DHT22;16337;59.536;13.468;2023-12-20T00:52:21;-1.60;99.90
29341;DHT22;16337;59.536;13.468;2023-12-20T00:54:48;-1.60;99.90
29341;DHT22;16337;59.536;13.468;2023-12-20T00:57:14;-1.60;99.90
29341;DHT22;16337;59.536;13.468;2023-12-20T00:59:40;-1.50;99.90
29341;DHT22;16337;59.536;13.468;2023-12-20T01:02:06;-1.40;99.90
29341;DHT22;16337;59.536;13.468;2023-12-20T01:04:32;-1.40;99.90
29341;DHT22;16337;59.536;13.468;2023-12-20T01:06:57;-1.40;99.90
29341;DHT22;16337;59.536;13.468;2023-12-20T01:09:23;-1.40;99.90
29341;DHT22;16337;59.536;13.468;2023-12-20T01:11:55;-1.40;99.90
29341;DHT22;16337;59.536;13.468;2023-12-20T01:14:20;-1.40;99.90
29341;DHT22;16337;59.536;13.468;2023-12-20T01:16:46;-1.40;99.90
29341;DHT22;16337;59.536;13.468;2023-12-20T01:19:13;-1.40;99.90
29341;DHT22;16337;59.536;13.468;2023-12-20T01:21:39;-1.40;99.90
29341;DHT22;16337;59.536;13.468;2023-12-20T01:24:05;-1.40;99.90
29341;DHT22;16337;59.536;13.468;2023-12-20T01:26:30;-1.40;99.90
29341;DHT22;16337;59.536;13.468;2023-12-20T01:28:56;-1.50;99.90
29341;DHT22;16337;59.536;13.468;2023-12-20T01:31:22;-1.40;99.90
29341;DHT22;16337;59.536;13.468;2023-12-20T01:33:47;-1.40;99.90
29341;DHT22;16337;59.536;13.468;2023-12-20T01:36:13;-1.30;99.90
29341;DHT22;16337;59.536;13.468;2023-12-20T01:38:38;-1.30;99.90
29341;DHT22;16337;59.536;13.468;2023-12-20T01:41:04;-1.30;99.90
29341;DHT22;16337;59.536;13.468;2023-12-20T01:43:30;-1.30;99.90
29341;DHT22;16337;59.536;13.468;2023-12-20T01:45:57;-1.20;99.90
29341;DHT22;16337;59.536;13.468;2023-12-20T01:48:23;-1.10;99.90
29341;DHT22;16337;59.536;13.468;2023-12-20T01:50:50;-1.10;99.90
29341;DHT22;16337;59.536;13.468;2023-12-20T01:53:17;-1.00;99.90
29341;DHT22;16337;59.536;13.468;2023-12-20T01:55:44;-0.90;99.90
29341;DHT22;16337;59.536;13.468;2023-12-20T01:58:11;-0.70;99.90
29341;DHT22;16337;59.536;13.468;2023-12-20T02:00:38;-0.60;99.90
29341;DHT22;16337;59.536;13.468;2023-12-20T02:03:04;-0.60;99.90
29341;DHT22;16337;59.536;13.468;2023-12-20T02:05:30;-0.50;99.90
29341;DHT22;16337;59.536;13.468;2023-12-20T02:07:56;-0.40;99.90
29341;DHT22;16337;59.536;13.468;2023-12-20T02:10:22;-0.30;99.90
29341;DHT22;16337;59.536;13.468;2023-12-20T02:12:48;-0.10;99.90
29341;DHT22;16337;59.536;13.468;2023-12-20T02:15:14;-0.10;99.90
29341;DHT22;16337;59.536;13.468;2023-12-20T02:17:40;-0.10;99.90
29341;DHT22;16337;59.536;13.468;2023-12-20T02:20:06;0.00;99.90
29341;DHT22;16337;59.536;13.468;2023-12-20T02:22:32;0.00;99.90
29341;DHT22;16337;59.536;13.468;2023-12-20T02:24:58;0.10;99.90
29341;DHT22;16337;59.536;13.468;2023-12-20T02:27:24;0.20;99.90
29341;DHT22;16337;59.536;13.468;2023-12-20T02:29:50;0.30;99.90
29341;DHT22;16337;59.536;13.468;2023-12-20T02:32:19;0.30;99.90
29341;DHT22;16337;59.536;13.468;2023-12-20T02:34:47;0.30;99.90
29341;DHT22;16337;59.536;13.468;2023-12-20T02:37:13;0.40;99.90
29341;DHT22;16337;59.536;13.468;2023-12-20T02:39:39;0.40;99.90
29341;DHT22;16337;59.536;13.468;2023-12-20T02:42:04;0.40;99.90
29341;DHT22;16337;59.536;13.468;2023-12-20T02:44:30;0.40;99.90
29341;DHT22;16337;59.536;13.468;2023-12-20T02:46:56;0.40;99.90
29341;DHT22;16337;59.536;13.468;2023-12-20T02:49:21;0.40;99.90
29341;DHT22;16337;59.536;13.468;2023-12-20T02:51:47;0.40;99.90
29341;DHT22;16337;59.536;13.468;2023-12-20T02:54:13;0.50;99.90
29341;DHT22;16337;59.536;13.468;2023-12-20T02:56:38;0.50;99.90
29341;DHT22;16337;59.536;13.468;2023-12-20T02:59:04;0.50;99.90
29341;DHT22;16337;59.536;13.468;2023-12-20T03:01:31;0.50;99.90
29341;DHT22;16337;59.536;13.468;2023-12-20T03:03:57;0.50;99.90
29341;DHT22;16337;59.536;13.468;2023-12-20T03:06:23;0.60;99.90
29341;DHT22;16337;59.536;13.468;2023-12-20T03:08:49;0.60;99.90
29341;DHT22;16337;59.536;13.468;2023-12-20T03:11:14;0.60;99.90
29341;DHT22;16337;59.536;13.468;2023-12-20T03:13:40;0.60;99.90
29341;DHT22;16337;59.536;13.468;2023-12-20T03:16:13;0.60;99.90
29341;DHT22;16337;59.536;13.468;2023-12-20T03:18:39;0.60;99.90
29341;DHT22;16337;59.536;13.468;2023-12-20T03:21:05;0.60;99.90
29341;DHT22;16337;59.536;13.468;2023-12-20T03:23:31;0.60;99.90
29341;DHT22;16337;59.536;13.468;2023-12-20T03:25:58;0.60;99.90
29341;DHT22;16337;59.536;13.468;2023-12-20T03:28:24;0.60;99.90
29341;DHT22;16337;59.536;13.468;2023-12-20T03:30:50;0.60;99.90
29341;DHT22;16337;59.536;13.468;2023-12-20T03:33:16;0.60;99.90
29341;DHT22;16337;59.536;13.468;2023-12-20T03:35:41;0.60;99.90
29341;DHT22;16337;59.536;13.468;2023-12-20T03:38:07;0.70;99.90
29341;DHT22;16337;59.536;13.468;2023-12-20T03:40:33;0.70;99.90
29341;DHT22;16337;59.536;13.468;2023-12-20T03:42:59;0.80;99.90
29341;DHT22;16337;59.536;13.468;2023-12-20T03:45:25;0.80;99.90
29341;DHT22;16337;59.536;13.468;2023-12-20T03:47:50;0.80;99.90
29341;DHT22;16337;59.536;13.468;2023-12-20T03:50:22;0.90;99.90
29341;DHT22;16337;59.536;13.468;2023-12-20T03:52:47;0.90;99.90
29341;DHT22;16337;59.536;13.468;2023-12-20T03:55:13;0.90;99.90
29341;DHT22;16337;59.536;13.468;2023-12-20T03:57:39;1.00;99.90
29341;DHT22;16337;59.536;13.468;2023-12-20T04:00:06;1.00;99.90
29341;DHT22;16337;59.536;13.468;2023-12-20T04:02:36;1.00;99.90
29341;DHT22;16337;59.536;13.468;2023-12-20T04:05:02;1.00;99.90
29341;DHT22;16337;59.536;13.468;2023-12-20T04:07:27;1.10;99.90
29341;DHT22;16337;59.536;13.468;2023-12-20T04:09:53;1.10;99.90
29341;DHT22;16337;59.536;13.468;2023-12-20T04:12:19;1.10;99.90
29341;DHT22;16337;59.536;13.468;2023-12-20T04:14:44;1.10;99.90
29341;DHT22;16337;59.536;13.468;2023-12-20T04:17:10;1.20;99.90
29341;DHT22;16337;59.536;13.468;2023-12-20T04:19:35;1.20;99.90
29341;DHT22;16337;59.536;13.468;2023-12-20T04:22:01;1.20;99.90
29341;DHT22;16337;59.536;13.468;2023-12-20T04:24:27;1.20;99.90
29341;DHT22;16337;59.536;13.468;2023-12-20T04:26:52;1.20;99.90
29341;DHT22;16337;59.536;13.468;2023-12-20T04:29:18;1.30;99.90
29341;DHT22;16337;59.536;13.468;2023-12-20T04:31:44;1.30;99.90
29341;DHT22;16337;59.536;13.468;2023-12-20T04:34:09;1.30;99.90
29341;DHT22;16337;59.536;13.468;2023-12-20T04:36:35;1.30;99.90
29341;DHT22;16337;59.536;13.468;2023-12-20T04:39:01;1.30;99.90
29341;DHT22;16337;59.536;13.468;2023-12-20T04:41:26;1.40;99.90
29341;DHT22;16337;59.536;13.468;2023-12-20T04:43:53;1.30;99.90
29341;DHT22;16337;59.536;13.468;2023-12-20T04:46:18;1.40;99.90
29341;DHT22;16337;59.536;13.468;2023-12-20T04:48:44;1.40;99.90
29341;DHT22;16337;59.536;13.468;2023-12-20T04:51:10;1.40;99.90
29341;DHT22;16337;59.536;13.468;2023-12-20T04:53:35;1.40;99.90
29341;DHT22;16337;59.536;13.468;2023-12-20T04:56:01;1.50;99.90
29341;DHT22;16337;59.536;13.468;2023-12-20T04:58:26;1.50;99.90
29341;DHT22;16337;59.536;13.468;2023-12-20T05:00:52;1.50;99.90
29341;DHT22;16337;59.536;13.468;2023-12-20T05:03:18;1.60;99.90
29341;DHT22;16337;59.536;13.468;2023-12-20T05:05:44;1.60;99.90
29341;DHT22;16337;59.536;13.468;2023-12-20T05:08:09;1.60;99.90
29341;DHT22;16337;59.536;13.468;2023-12-20T05:10:35;1.60;99.90
29341;DHT22;16337;59.536;13.468;2023-12-20T05:13:01;1.60;99.90
29341;DHT22;16337;59.536;13.468;2023-12-20T05:15:28;1.60;99.90
29341;DHT22;16337;59.536;13.468;2023-12-20T05:17:53;1.60;99.90
29341;DHT22;16337;59.536;13.468;2023-12-20T05:20:19;1.70;99.90
29341;DHT22;16337;59.536;13.468;2023-12-20T05:22:44;1.70;99.90
29341;DHT22;16337;59.536;13.468;2023-12-20T05:25:10;1.70;99.90
29341;DHT22;16337;59.536;13.468;2023-12-20T05:27:36;1.80;99.90
29341;DHT22;16337;59.536;13.468;2023-12-20T05:30:02;1.80;99.90
29341;DHT22;16337;59.536;13.468;2023-12-20T05:32:30;1.70;99.90
29341;DHT22;16337;59.536;13.468;2023-12-20T05:34:55;1.80;99.90
29341;DHT22;16337;59.536;13.468;2023-12-20T05:37:21;1.80;99.90
29341;DHT22;16337;59.536;13.468;2023-12-20T05:39:46;1.80;99.90
29341;DHT22;16337;59.536;13.468;2023-12-20T05:42:12;1.80;99.90
29341;DHT22;16337;59.536;13.468;2023-12-20T05:44:38;1.80;99.90
29341;DHT22;16337;59.536;13.468;2023-12-20T05:47:03;1.90;99.90
29341;DHT22;16337;59.536;13.468;2023-12-20T05:49:29;1.90;99.90
29341;DHT22;16337;59.536;13.468;2023-12-20T05:51:55;1.90;99.90
29341;DHT22;16337;59.536;13.468;2023-12-20T05:54:20;1.90;99.90
29341;DHT22;16337;59.536;13.468;2023-12-20T05:56:47;1.90;99.90
29341;DHT22;16337;59.536;13.468;2023-12-20T05:59:12;1.90;99.90
29341;DHT22;16337;59.536;13.468;2023-12-20T06:01:39;1.90;99.90
29341;DHT22;16337;59.536;13.468;2023-12-20T06:04:04;1.90;99.90
29341;DHT22;16337;59.536;13.468;2023-12-20T06:06:30;1.90;99.90
29341;DHT22;16337;59.536;13.468;2023-12-20T06:08:56;2.00;99.90
29341;DHT22;16337;59.536;13.468;2023-12-20T06:11:22;2.00;99.90
29341;DHT22;16337;59.536;13.468;2023-12-20T06:13:48;2.00;99.90
29341;DHT22;16337;59.536;13.468;2023-12-20T06:16:14;2.00;99.90
29341;DHT22;16337;59.536;13.468;2023-12-20T06:18:40;2.00;99.90
29341;DHT22;16337;59.536;13.468;2023-12-20T06:21:06;2.00;99.90
29341;DHT22;16337;59.536;13.468;2023-12-20T06:23:33;2.00;99.90
29341;DHT22;16337;59.536;13.468;2023-12-20T06:25:58;2.10;99.90
29341;DHT22;16337;59.536;13.468;2023-12-20T06:28:24;2.10;99.90
29341;DHT22;16337;59.536;13.468;2023-12-20T06:30:50;2.10;99.90
29341;DHT22;16337;59.536;13.468;2023-12-20T06:33:17;2.10;99.90
29341;DHT22;16337;59.536;13.468;2023-12-20T06:35:44;2.20;99.90
29341;DHT22;16337;59.536;13.468;2023-12-20T06:38:09;2.20;99.90
29341;DHT22;16337;59.536;13.468;2023-12-20T06:40:35;2.20;99.90
29341;DHT22;16337;59.536;13.468;2023-12-20T06:43:01;2.20;99.90
29341;DHT22;16337;59.536;13.468;2023-12-20T06:45:27;2.30;99.90
29341;DHT22;16337;59.536;13.468;2023-12-20T06:47:53;2.30;99.90
29341;DHT22;16337;59.536;13.468;2023-12-20T06:50:20;2.30;99.90
29341;DHT22;16337;59.536;13.468;2023-12-20T06:52:45;2.30;99.90
29341;DHT22;16337;59.536;13.468;2023-12-20T06:55:11;2.30;99.90
29341;DHT22;16337;59.536;13.468;2023-12-20T06:57:37;2.30;99.90
29341;DHT22;16337;59.536;13.468;2023-12-20T07:00:03;2.30;99.90
29341;DHT22;16337;59.536;13.468;2023-12-20T07:02:29;2.30;99.90
29341;DHT22;16337;59.536;13.468;2023-12-20T07:04:56;2.30;99.90
29341;DHT22;16337;59.536;13.468;2023-12-20T07:07:21;2.30;99.90
29341;DHT22;16337;59.536;13.468;2023-12-20T07:09:48;2.30;99.90
29341;DHT22;16337;59.536;13.468;2023-12-20T07:12:14;2.30;99.90
29341;DHT22;16337;59.536;13.468;2023-12-20T07:14:40;2.30;99.90
29341;DHT22;16337;59.536;13.468;2023-12-20T07:17:06;2.30;99.90
29341;DHT22;16337;59.536;13.468;2023-12-20T07:19:37;2.30;99.90
29341;DHT22;16337;59.536;13.468;2023-12-20T07:22:04;2.30;99.90
29341;DHT22;16337;59.536;13.468;2023-12-20T07:24:29;2.30;99.90
29341;DHT22;16337;59.536;13.468;2023-12-20T07:26:55;2.30;99.90
29341;DHT22;16337;59.536;13.468;2023-12-20T07:29:20;2.30;99.90
29341;DHT22;16337;59.536;13.468;2023-12-20T07:31:46;2.30;99.90
29341;DHT22;16337;59.536;13.468;2023-12-20T07:34:12;2.40;99.90
29341;DHT22;16337;59.536;13.468;2023-12-20T07:36:37;2.40;99.90
29341;DHT22;16337;59.536;13.468;2023-12-20T07:39:03;2.40;99.90
29341;DHT22;16337;59.536;13.468;2023-12-20T07:41:29;2.50;99.90
29341;DHT22;16337;59.536;13.468;2023-12-20T07:43:54;2.50;99.90
29341;DHT22;16337;59.536;13.468;2023-12-20T07:46:21;2.50;99.90
29341;DHT22;16337;59.536;13.468;2023-12-20T07:48:49;2.50;99.90
29341;DHT22;16337;59.536;13.468;2023-12-20T07:51:15;2.50;99.90
29341;DHT22;16337;59.536;13.468;2023-12-20T07:53:41;2.50;99.90
29341;DHT22;16337;59.536;13.468;2023-12-20T07:56:19;2.40;99.90
29341;DHT22;16337;59.536;13.468;2023-12-20T07:58:45;2.40;99.90
29341;DHT22;16337;59.536;13.468;2023-12-20T08:01:12;2.50;99.90
29341;DHT22;16337;59.536;13.468;2023-12-20T08:03:38;2.50;99.90
29341;DHT22;16337;59.536;13.468;2023-12-20T08:06:04;2.50;99.90
29341;DHT22;16337;59.536;13.468;2023-12-20T08:08:30;2.60;99.90
29341;DHT22;16337;59.536;13.468;2023-12-20T08:10:56;2.60;99.90
29341;DHT22;16337;59.536;13.468;2023-12-20T08:13:24;2.60;99.90
29341;DHT22;16337;59.536;13.468;2023-12-20T08:15:52;2.60;99.90
29341;DHT22;16337;59.536;13.468;2023-12-20T08:18:17;2.60;99.90
29341;DHT22;16337;59.536;13.468;2023-12-20T08:20:43;2.60;99.90
29341;DHT22;16337;59.536;13.468;2023-12-20T08:23:08;2.60;99.90
29341;DHT22;16337;59.536;13.468;2023-12-20T08:25:34;2.50;99.90
29341;DHT22;16337;59.536;13.468;2023-12-20T08:28:02;2.60;99.90
29341;DHT22;16337;59.536;13.468;2023-12-20T08:30:27;2.60;99.90
29341;DHT22;16337;59.536;13.468;2023-12-20T08:32:53;2.60;99.90
29341;DHT22;16337;59.536;13.468;2023-12-20T08:35:19;2.60;99.90
29341;DHT22;16337;59.536;13.468;2023-12-20T08:37:45;2.60;99.90
29341;DHT22;16337;59.536;13.468;2023-12-20T08:40:11;2.70;99.90
29341;DHT22;16337;59.536;13.468;2023-12-20T08:42:36;2.70;99.90
29341;DHT22;16337;59.536;13.468;2023-12-20T08:45:02;2.70;99.90
29341;DHT22;16337;59.536;13.468;2023-12-20T08:47:29;2.80;99.90
29341;DHT22;16337;59.536;13.468;2023-12-20T08:49:55;2.80;99.90
29341;DHT22;16337;59.536;13.468;2023-12-20T08:52:25;2.80;99.90
29341;DHT22;16337;59.536;13.468;2023-12-20T08:54:52;2.80;99.90
29341;DHT22;16337;59.536;13.468;2023-12-20T08:57:22;2.90;99.90
29341;DHT22;16337;59.536;13.468;2023-12-20T08:59:49;2.90;99.90
29341;DHT22;16337;59.536;13.468;2023-12-20T09:02:16;2.90;99.90
29341;DHT22;16337;59.536;13.468;2023-12-20T09:04:41;2.90;99.90
29341;DHT22;16337;59.536;13.468;2023-12-20T09:07:20;2.90;99.90
29341;DHT22;16337;59.536;13.468;2023-12-20T09:09:46;2.90;99.90
29341;DHT22;16337;59.536;13.468;2023-12-20T09:12:11;3.00;99.90
29341;DHT22;16337;59.536;13.468;2023-12-20T09:14:37;3.00;99.90
29341;DHT22;16337;59.536;13.468;2023-12-20T09:17:03;3.00;99.90
29341;DHT22;16337;59.536;13.468;2023-12-20T09:19:28;3.10;99.90
29341;DHT22;16337;59.536;13.468;2023-12-20T09:21:55;3.10;99.90
29341;DHT22;16337;59.536;13.468;2023-12-20T09:24:20;3.20;99.90
29341;DHT22;16337;59.536;13.468;2023-12-20T09:26:46;3.20;99.90
29341;DHT22;16337;59.536;13.468;2023-12-20T09:29:12;3.20;99.90
29341;DHT22;16337;59.536;13.468;2023-12-20T09:31:41;3.20;99.90
29341;DHT22;16337;59.536;13.468;2023-12-20T09:34:07;3.30;99.90
29341;DHT22;16337;59.536;13.468;2023-12-20T09:36:32;3.30;99.90
29341;DHT22;16337;59.536;13.468;2023-12-20T09:39:01;3.20;99.90
29341;DHT22;16337;59.536;13.468;2023-12-20T09:41:29;3.30;99.90
29341;DHT22;16337;59.536;13.468;2023-12-20T09:44:02;3.30;99.90
29341;DHT22;16337;59.536;13.468;2023-12-20T09:46:29;3.30;99.90
29341;DHT22;16337;59.536;13.468;2023-12-20T09:48:59;3.30;99.90
29341;DHT22;16337;59.536;13.468;2023-12-20T09:51:27;3.30;99.90
29341;DHT22;16337;59.536;13.468;2023-12-20T09:53:54;3.30;99.90
29341;DHT22;16337;59.536;13.468;2023-12-20T09:56:23;3.40;99.90
29341;DHT22;16337;59.536;13.468;2023-12-20T09:58:50;3.40;99.90
29341;DHT22;16337;59.536;13.468;2023-12-20T10:01:16;3.40;99.90
29341;DHT22;16337;59.536;13.468;2023-12-20T10:03:42;3.30;99.90
29341;DHT22;16337;59.536;13.468;2023-12-20T10:06:08;3.40;99.90
29341;DHT22;16337;59.536;13.468;2023-12-20T10:08:34;3.30;99.90
29341;DHT22;16337;59.536;13.468;2023-12-20T10:11:01;3.30;99.90
29341;DHT22;16337;59.536;13.468;2023-12-20T10:13:28;3.30;99.90
29341;DHT22;16337;59.536;13.468;2023-12-20T10:15:55;3.30;99.90
29341;DHT22;16337;59.536;13.468;2023-12-20T10:18:21;3.30;99.90
29341;DHT22;16337;59.536;13.468;2023-12-20T10:20:47;3.40;99.90
29341;DHT22;16337;59.536;13.468;2023-12-20T10:23:13;3.40;99.90
29341;DHT22;16337;59.536;13.468;2023-12-20T10:25:40;3.40;99.90
29341;DHT22;16337;59.536;13.468;2023-12-20T10:28:16;3.40;99.90
29341;DHT22;16337;59.536;13.468;2023-12-20T10:30:48;3.40;99.90
29341;DHT22;16337;59.536;13.468;2023-12-20T10:33:13;3.40;99.90
29341;DHT22;16337;59.536;13.468;2023-12-20T10:35:48;3.40;99.90
29341;DHT22;16337;59.536;13.468;2023-12-20T10:38:14;3.40;99.90
29341;DHT22;16337;59.536;13.468;2023-12-20T10:40:40;3.40;99.90
29341;DHT22;16337;59.536;13.468;2023-12-20T10:43:07;3.40;99.90
29341;DHT22;16337;59.536;13.468;2023-12-20T10:45:34;3.50;99.90
29341;DHT22;16337;59.536;13.468;2023-12-20T10:48:00;3.50;99.90
29341;DHT22;16337;59.536;13.468;2023-12-20T10:50:27;3.50;99.90
29341;DHT22;16337;59.536;13.468;2023-12-20T10:52:55;3.50;99.90
29341;DHT22;16337;59.536;13.468;2023-12-20T10:55:24;3.50;99.90
29341;DHT22;16337;59.536;13.468;2023-12-20T10:57:51;3.50;99.90
29341;DHT22;16337;59.536;13.468;2023-12-20T11:00:18;3.50;99.90
29341;DHT22;16337;59.536;13.468;2023-12-20T11:02:44;3.50;99.90
29341;DHT22;16337;59.536;13.468;2023-12-20T11:07:40;3.70;99.90
29341;DHT22;16337;59.536;13.468;2023-12-20T11:10:23;3.70;99.90
29341;DHT22;16337;59.536;13.468;2023-12-20T11:13:12;3.70;99.90
29341;DHT22;16337;59.536;13.468;2023-12-20T11:15:40;3.70;99.90
29341;DHT22;16337;59.536;13.468;2023-12-20T11:18:06;3.70;99.90
29341;DHT22;16337;59.536;13.468;2023-12-20T11:20:40;3.70;99.90
29341;DHT22;16337;59.536;13.468;2023-12-20T11:23:08;3.70;99.90
29341;DHT22;16337;59.536;13.468;2023-12-20T11:25:54;3.60;99.90
29341;DHT22;16337;59.536;13.468;2023-12-20T11:28:24;3.60;99.90
29341;DHT22;16337;59.536;13.468;2023-12-20T11:31:01;3.50;99.90
29341;DHT22;16337;59.536;13.468;2023-12-20T11:33:37;3.50;99.90
29341;DHT22;16337;59.536;13.468;2023-12-20T11:36:03;3.50;99.90
29341;DHT22;16337;59.536;13.468;2023-12-20T11:38:38;3.50;99.90
29341;DHT22;16337;59.536;13.468;2023-12-20T11:41:06;3.60;99.90
29341;DHT22;16337;59.536;13.468;2023-12-20T11:46:04;3.60;99.90
29341;DHT22;16337;59.536;13.468;2023-12-20T11:48:31;3.70;99.90
29341;DHT22;16337;59.536;13.468;2023-12-20T11:50:57;3.70;99.90
29341;DHT22;16337;59.536;13.468;2023-12-20T11:53:23;3.70;99.90
29341;DHT22;16337;59.536;13.468;2023-12-20T11:55:49;3.60;99.90
29341;DHT22;16337;59.536;13.468;2023-12-20T11:58:15;3.60;99.90
29341;DHT22;16337;59.536;13.468;2023-12-20T12:00:42;3.60;99.90
29341;DHT22;16337;59.536;13.468;2023-12-20T12:03:09;3.50;99.90
29341;DHT22;16337;59.536;13.468;2023-12-20T12:05:35;3.50;99.90
29341;DHT22;16337;59.536;13.468;2023-12-20T12:08:02;3.50;99.90
29341;DHT22;16337;59.536;13.468;2023-12-20T12:10:28;3.50;99.90
29341;DHT22;16337;59.536;13.468;2023-12-20T12:12:54;3.40;99.90
29341;DHT22;16337;59.536;13.468;2023-12-20T12:15:20;3.40;99.90
29341;DHT22;16337;59.536;13.468;2023-12-20T12:17:56;3.40;99.90
29341;DHT22;16337;59.536;13.468;2023-12-20T12:20:23;3.30;99.90
29341;DHT22;16337;59.536;13.468;2023-12-20T12:23:06;3.20;99.90
29341;DHT22;16337;59.536;13.468;2023-12-20T12:25:35;3.20;99.90
29341;DHT22;16337;59.536;13.468;2023-12-20T12:28:01;3.20;99.90
29341;DHT22;16337;59.536;13.468;2023-12-20T12:30:27;3.20;99.90
29341;DHT22;16337;59.536;13.468;2023-12-20T12:32:53;3.10;99.90
29341;DHT22;16337;59.536;13.468;2023-12-20T12:35:20;3.20;99.90
29341;DHT22;16337;59.536;13.468;2023-12-20T12:37:46;3.20;99.90
29341;DHT22;16337;59.536;13.468;2023-12-20T12:40:13;3.20;99.90
29341;DHT22;16337;59.536;13.468;2023-12-20T12:42:40;3.20;99.90
29341;DHT22;16337;59.536;13.468;2023-12-20T12:45:07;3.20;99.90
29341;DHT22;16337;59.536;13.468;2023-12-20T12:47:33;3.20;99.90
29341;DHT22;16337;59.536;13.468;2023-12-20T12:49:59;3.10;99.90
29341;DHT22;16337;59.536;13.468;2023-12-20T12:52:25;3.10;99.90
29341;DHT22;16337;59.536;13.468;2023-12-20T12:54:52;3.10;99.90
29341;DHT22;16337;59.536;13.468;2023-12-20T12:57:18;3.00;99.90
29341;DHT22;16337;59.536;13.468;2023-12-20T12:59:45;3.00;99.90
29341;DHT22;16337;59.536;13.468;2023-12-20T13:02:14;2.90;99.90
29341;DHT22;16337;59.536;13.468;2023-12-20T13:04:40;2.90;99.90
29341;DHT22;16337;59.536;13.468;2023-12-20T13:07:07;2.80;99.90
29341;DHT22;16337;59.536;13.468;2023-12-20T13:09:33;2.80;99.90
29341;DHT22;16337;59.536;13.468;2023-12-20T13:11:58;2.70;99.90
29341;DHT22;16337;59.536;13.468;2023-12-20T13:14:25;2.70;99.90
29341;DHT22;16337;59.536;13.468;2023-12-20T13:16:50;2.70;99.90
29341;DHT22;16337;59.536;13.468;2023-12-20T13:19:16;2.60;99.90
29341;DHT22;16337;59.536;13.468;2023-12-20T13:21:41;2.60;99.90
29341;DHT22;16337;59.536;13.468;2023-12-20T13:24:07;2.60;99.90
29341;DHT22;16337;59.536;13.468;2023-12-20T13:26:33;2.60;99.90
29341;DHT22;16337;59.536;13.468;2023-12-20T13:28:59;2.60;99.90
29341;DHT22;16337;59.536;13.468;2023-12-20T13:31:24;2.60;99.90
29341;DHT22;16337;59.536;13.468;2023-12-20T13:33:50;2.50;99.90
29341;DHT22;16337;59.536;13.468;2023-12-20T13:36:18;2.50;99.90
29341;DHT22;16337;59.536;13.468;2023-12-20T13:38:44;2.50;99.90
29341;DHT22;16337;59.536;13.468;2023-12-20T13:41:09;2.50;99.90
29341;DHT22;16337;59.536;13.468;2023-12-20T13:43:35;2.50;99.90
29341;DHT22;16337;59.536;13.468;2023-12-20T13:46:01;2.50;99.90
29341;DHT22;16337;59.536;13.468;2023-12-20T13:48:27;2.50;99.90
29341;DHT22;16337;59.536;13.468;2023-12-20T13:50:52;2.50;99.90
29341;DHT22;16337;59.536;13.468;2023-12-20T13:53:20;2.50;99.90
29341;DHT22;16337;59.536;13.468;2023-12-20T13:55:45;2.50;99.90
29341;DHT22;16337;59.536;13.468;2023-12-20T13:58:11;2.40;99.90
29341;DHT22;16337;59.536;13.468;2023-12-20T14:00:37;2.40;99.90
29341;DHT22;16337;59.536;13.468;2023-12-20T14:03:06;2.40;99.90
29341;DHT22;16337;59.536;13.468;2023-12-20T14:05:32;2.40;99.90
29341;DHT22;16337;59.536;13.468;2023-12-20T14:07:58;2.30;99.90
29341;DHT22;16337;59.536;13.468;2023-12-20T14:10:24;2.30;99.90
29341;DHT22;16337;59.536;13.468;2023-12-20T14:12:54;2.20;99.90
29341;DHT22;16337;59.536;13.468;2023-12-20T14:15:20;2.20;99.90
29341;DHT22;16337;59.536;13.468;2023-12-20T14:17:46;2.20;99.90
29341;DHT22;16337;59.536;13.468;2023-12-20T14:20:12;2.20;99.90
29341;DHT22;16337;59.536;13.468;2023-12-20T14:22:45;2.20;99.90
29341;DHT22;16337;59.536;13.468;2023-12-20T14:25:13;2.10;99.90
29341;DHT22;16337;59.536;13.468;2023-12-20T14:27:39;2.10;99.90
29341;DHT22;16337;59.536;13.468;2023-12-20T14:30:06;2.10;99.90
29341;DHT22;16337;59.536;13.468;2023-12-20T14:32:34;2.10;99.90
29341;DHT22;16337;59.536;13.468;2023-12-20T14:35:02;2.10;99.90
29341;DHT22;16337;59.536;13.468;2023-12-20T14:37:28;2.10;99.90
29341;DHT22;16337;59.536;13.468;2023-12-20T14:39:54;2.00;99.90
29341;DHT22;16337;59.536;13.468;2023-12-20T14:42:20;2.00;99.90
29341;DHT22;16337;59.536;13.468;2023-12-20T14:44:46;2.00;99.90
29341;DHT22;16337;59.536;13.468;2023-12-20T14:47:12;2.00;99.90
29341;DHT22;16337;59.536;13.468;2023-12-20T14:49:39;1.90;99.90
29341;DHT22;16337;59.536;13.468;2023-12-20T14:52:05;1.90;99.90
29341;DHT22;16337;59.536;13.468;2023-12-20T14:54:30;1.90;99.90
29341;DHT22;16337;59.536;13.468;2023-12-20T14:56:57;1.90;99.90
29341;DHT22;16337;59.536;13.468;2023-12-20T14:59:23;1.90;99.90
29341;DHT22;16337;59.536;13.468;2023-12-20T15:02:06;1.80;99.90
29341;DHT22;16337;59.536;13.468;2023-12-20T15:04:35;1.80;99.90
29341;DHT22;16337;59.536;13.468;2023-12-20T15:07:03;1.80;99.90
29341;DHT22;16337;59.536;13.468;2023-12-20T15:09:31;1.80;99.90
29341;DHT22;16337;59.536;13.468;2023-12-20T15:11:57;1.70;99.90
29341;DHT22;16337;59.536;13.468;2023-12-20T15:14:23;1.70;99.90
29341;DHT22;16337;59.536;13.468;2023-12-20T15:16:48;1.70;99.90
29341;DHT22;16337;59.536;13.468;2023-12-20T15:19:15;1.70;99.90
29341;DHT22;16337;59.536;13.468;2023-12-20T15:21:41;1.70;99.90
29341;DHT22;16337;59.536;13.468;2023-12-20T15:24:09;1.70;99.90
29341;DHT22;16337;59.536;13.468;2023-12-20T15:26:41;1.70;99.90
29341;DHT22;16337;59.536;13.468;2023-12-20T15:29:07;1.60;99.90